Time;durP1;ratioP1;P1;durP2;ratioP2;P2;SDS_P1;SDS_P2;PMS_P1;PMS_P2;Temp;Humidity;BMP_temperature;BMP_pressure;BME280_temperature;BME280_humidity;BME280_pressure;Samples;Min_cycle;Max_cycle;Signal;HPM_P1;HPM_P2
2023/04/14 00:01:39;;;;;;;5.40;2.97;;;5.70;99.90;;;;;;4979950;28;20090;-68
2023/04/14 00:04:05;;;;;;;8.82;3.85;;;5.60;99.90;;;;;;4981471;28;20030;-67
2023/04/14 00:06:31;;;;;;;7.00;2.95;;;5.60;99.90;;;;;;4953514;28;20448;-68
2023/04/14 00:08:57;;;;;;;6.63;3.20;;;5.60;99.90;;;;;;4980063;28;20038;-67
2023/04/14 00:11:23;;;;;;;5.30;3.08;;;5.60;99.90;;;;;;4980571;28;20035;-67
2023/04/14 00:13:48;;;;;;;10.38;3.60;;;5.50;99.90;;;;;;4971882;28;20046;-67
2023/04/14 00:16:14;;;;;;;6.65;3.40;;;5.40;99.90;;;;;;4988221;28;20452;-67
2023/04/14 00:18:40;;;;;;;6.75;3.47;;;5.40;99.90;;;;;;4974085;28;20415;-69
2023/04/14 00:21:05;;;;;;;5.82;3.10;;;5.40;99.90;;;;;;4966829;28;20120;-69
2023/04/14 00:23:31;;;;;;;7.85;2.75;;;5.40;99.90;;;;;;4989689;28;20492;-69
2023/04/14 00:25:56;;;;;;;8.65;3.22;;;5.40;99.90;;;;;;4966112;28;20506;-69
2023/04/14 00:28:22;;;;;;;8.05;3.35;;;5.30;99.90;;;;;;4967651;28;20038;-68
2023/04/14 00:30:48;;;;;;;8.40;3.13;;;5.30;99.90;;;;;;4992582;28;20042;-69
2023/04/14 00:33:13;;;;;;;6.85;2.97;;;5.20;99.90;;;;;;4971309;28;20038;-70
2023/04/14 00:35:39;;;;;;;6.93;3.35;;;5.20;99.90;;;;;;4941842;28;20038;-70
2023/04/14 00:38:04;;;;;;;9.38;4.15;;;5.20;99.90;;;;;;4966003;28;20042;-69
2023/04/14 00:40:30;;;;;;;5.63;3.17;;;5.20;99.90;;;;;;4952799;28;20089;-70
2023/04/14 00:42:56;;;;;;;7.65;3.40;;;5.20;99.90;;;;;;4955801;28;20038;-69
2023/04/14 00:45:28;;;;;;;8.02;3.60;;;5.20;99.90;;;;;;4983532;28;20046;-69
2023/04/14 00:47:56;;;;;;;6.10;2.75;;;5.20;99.90;;;;;;4974269;28;20049;-70
2023/04/14 00:50:21;;;;;;;6.07;2.90;;;5.20;99.90;;;;;;4967027;28;20524;-70
2023/04/14 00:52:49;;;;;;;7.78;3.70;;;5.00;99.90;;;;;;4970552;28;20066;-70
2023/04/14 00:55:20;;;;;;;6.82;3.55;;;4.90;99.90;;;;;;4988228;28;20400;-70
2023/04/14 00:57:45;;;;;;;6.63;3.38;;;4.90;99.90;;;;;;4967682;28;20101;-69
2023/04/14 01:00:12;;;;;;;8.07;3.35;;;4.80;99.90;;;;;;4956911;28;20441;-70
2023/04/14 01:03:17;;;;;;;6.55;3.50;;;4.80;99.90;;;;;;4988172;28;20050;-70
2023/04/14 01:05:43;;;;;;;5.72;3.30;;;4.70;99.90;;;;;;4975983;28;20365;-71
2023/04/14 01:08:08;;;;;;;7.40;3.55;;;4.70;99.90;;;;;;4953567;28;20038;-71
2023/04/14 01:10:54;;;;;;;7.75;3.53;;;4.70;99.90;;;;;;4986618;28;20449;-69
2023/04/14 01:13:32;;;;;;;4.93;3.17;;;4.70;99.90;;;;;;4973055;28;20039;-71
2023/04/14 01:20:35;;;;;;;6.70;3.00;;;4.60;99.90;;;;;;4943723;29;20031;-72
2023/04/14 01:27:51;;;;;;;5.70;2.50;;;4.10;99.90;;;;;;4869347;29;20083;-70
2023/04/14 01:31:05;;;;;;;4.85;2.53;;;4.00;99.90;;;;;;4875480;29;20077;-70
2023/04/14 01:35:04;;;;;;;7.07;3.40;;;3.90;99.90;;;;;;4917930;29;20079;-70
2023/04/14 01:46:35;;;;;;;5.22;3.55;;;4.40;99.90;;;;;;4763658;30;20033;-71
2023/04/14 01:57:19;;;;;;;6.88;3.22;;;5.00;99.90;;;;;;5597006;23;20047;-68
2023/04/14 01:59:47;;;;;;;6.82;3.30;;;5.10;99.90;;;;;;4937168;28;20446;-68
2023/04/14 02:06:33;;;;;;;5.30;2.90;;;5.10;99.90;;;;;;4982432;28;20026;-68
2023/04/14 02:09:42;;;;;;;3.90;2.65;;;5.00;99.90;;;;;;5073884;23;20118;-68
2023/04/14 02:13:10;;;;;;;6.78;3.20;;;4.90;99.90;;;;;;4961972;28;20046;-67
2023/04/14 02:18:49;;;;;;;8.13;3.10;;;5.00;99.90;;;;;;5844606;23;20633;-66
2023/04/14 02:46:40;;;;;;;5.07;3.03;;;5.30;99.90;;;;;;4981697;28;20059;-69
2023/04/14 02:54:10;;;;;;;4.93;3.13;;;5.00;99.90;;;;;;4920196;29;20061;-68
2023/04/14 02:57:21;;;;;;;5.22;3.20;;;4.80;99.90;;;;;;4955355;23;20039;-65
2023/04/14 02:59:47;;;;;;;5.03;3.25;;;4.60;99.90;;;;;;4962593;28;20039;-65
2023/04/14 03:02:14;;;;;;;5.40;3.30;;;4.50;99.90;;;;;;4940873;28;20412;-65
2023/04/14 03:04:41;;;;;;;5.45;3.42;;;4.50;99.90;;;;;;4964831;28;20054;-65
2023/04/14 03:07:11;;;;;;;8.25;4.30;;;4.40;99.90;;;;;;4964443;28;20061;-65
2023/04/14 03:09:39;;;;;;;8.65;4.10;;;4.50;99.90;;;;;;4954025;28;20401;-65
2023/04/14 03:12:06;;;;;;;6.18;2.83;;;4.40;99.90;;;;;;4930068;28;20043;-65
2023/04/14 03:14:33;;;;;;;5.20;3.30;;;4.30;99.90;;;;;;4932204;29;20039;-65
2023/04/14 03:17:00;;;;;;;5.38;3.10;;;4.20;99.90;;;;;;4953939;28;20039;-65
2023/04/14 03:19:27;;;;;;;7.07;3.63;;;4.10;99.90;;;;;;4954147;29;20035;-64
2023/04/14 03:21:54;;;;;;;6.95;3.88;;;4.10;99.90;;;;;;4943429;28;20043;-65
2023/04/14 03:24:23;;;;;;;9.52;4.28;;;4.10;99.90;;;;;;4953878;28;20485;-65
2023/04/14 03:27:20;;;;;;;11.65;4.53;;;4.10;99.90;;;;;;4936426;29;20039;-65
2023/04/14 03:29:50;;;;;;;6.18;3.70;;;4.10;99.90;;;;;;4937001;28;20054;-64
2023/04/14 03:32:17;;;;;;;7.10;3.40;;;4.00;99.90;;;;;;4948938;28;20039;-68
2023/04/14 03:34:47;;;;;;;10.93;3.50;;;3.90;99.90;;;;;;4937027;29;20087;-64
2023/04/14 03:37:16;;;;;;;5.13;3.40;;;3.70;99.90;;;;;;4953180;29;20054;-64
2023/04/14 03:39:44;;;;;;;5.63;3.20;;;3.60;99.90;;;;;;4942900;28;20118;-65
2023/04/14 03:42:11;;;;;;;5.85;3.35;;;3.50;99.90;;;;;;4925224;29;20510;-64
2023/04/14 03:44:39;;;;;;;5.05;3.53;;;3.50;99.90;;;;;;4934322;29;20090;-65
2023/04/14 03:47:07;;;;;;;7.80;3.97;;;3.50;99.90;;;;;;4947005;28;20509;-64
2023/04/14 03:49:36;;;;;;;6.10;3.85;;;3.50;99.90;;;;;;4931344;29;20050;-65
2023/04/14 03:52:09;;;;;;;6.88;4.03;;;3.50;99.90;;;;;;4953669;28;20031;-65
2023/04/14 03:54:37;;;;;;;6.97;4.05;;;3.50;99.90;;;;;;4923934;29;20409;-65
2023/04/14 03:57:06;;;;;;;7.35;4.30;;;3.50;99.90;;;;;;4939559;28;20081;-64
2023/04/14 03:59:33;;;;;;;9.32;4.40;;;3.40;99.90;;;;;;4932545;29;20043;-65
2023/04/14 04:02:01;;;;;;;6.57;3.83;;;3.40;99.90;;;;;;4947620;28;20098;-65
2023/04/14 04:04:28;;;;;;;8.57;4.00;;;3.40;99.90;;;;;;4935603;29;20513;-65
2023/04/14 04:06:54;;;;;;;5.63;3.55;;;3.40;99.90;;;;;;4936006;29;20119;-65
2023/04/14 04:09:23;;;;;;;8.85;3.72;;;3.30;99.90;;;;;;4953449;29;20452;-64
2023/04/14 04:11:49;;;;;;;6.35;3.80;;;3.30;99.90;;;;;;4950701;28;20047;-65
2023/04/14 04:14:18;;;;;;;6.45;3.88;;;3.30;99.90;;;;;;4943754;29;20118;-65
2023/04/14 04:16:48;;;;;;;7.85;4.22;;;3.30;99.90;;;;;;4936456;29;20513;-65
2023/04/14 04:19:17;;;;;;;7.10;4.40;;;3.30;99.90;;;;;;4927006;29;20039;-64
2023/04/14 04:21:45;;;;;;;9.65;4.53;;;3.30;99.90;;;;;;4947917;28;20043;-64
2023/04/14 04:24:12;;;;;;;7.47;4.53;;;3.30;99.90;;;;;;4928436;29;20050;-64
2023/04/14 04:26:38;;;;;;;10.43;5.03;;;3.30;99.90;;;;;;4932876;29;20035;-65
2023/04/14 04:29:04;;;;;;;9.00;5.18;;;3.30;99.90;;;;;;4958582;28;20043;-65
2023/04/14 04:31:31;;;;;;;10.15;4.70;;;3.30;99.90;;;;;;4957950;28;20446;-65
2023/04/14 04:33:57;;;;;;;8.68;4.50;;;3.40;99.90;;;;;;4936376;29;20171;-64
2023/04/14 04:36:27;;;;;;;13.40;5.45;;;3.40;99.90;;;;;;4946810;29;20102;-64
2023/04/14 04:38:53;;;;;;;9.10;4.90;;;3.40;99.90;;;;;;4949748;28;20493;-65
2023/04/14 04:41:29;;;;;;;8.70;4.75;;;3.30;99.90;;;;;;4944649;29;20043;-65
2023/04/14 04:43:55;;;;;;;17.35;5.40;;;3.30;99.90;;;;;;4938240;29;20035;-65
2023/04/14 04:46:41;;;;;;;9.30;5.00;;;3.40;99.90;;;;;;4943846;28;20179;-64
2023/04/14 04:49:06;;;;;;;11.55;5.25;;;3.40;99.90;;;;;;4946745;28;20078;-65
2023/04/14 04:51:32;;;;;;;10.93;5.00;;;3.40;99.90;;;;;;4957449;29;20352;-65
2023/04/14 04:53:57;;;;;;;9.57;5.13;;;3.40;99.90;;;;;;4940227;28;20123;-67
2023/04/14 04:56:23;;;;;;;8.25;4.35;;;3.30;99.90;;;;;;4950619;28;20394;-67
2023/04/14 04:58:49;;;;;;;8.57;3.75;;;3.20;99.90;;;;;;4956343;28;20409;-67
2023/04/14 05:01:15;;;;;;;9.52;3.60;;;3.10;99.90;;;;;;4920123;29;20043;-65
2023/04/14 05:03:41;;;;;;;8.07;3.75;;;2.90;99.90;;;;;;4955322;28;20545;-67
2023/04/14 05:06:07;;;;;;;8.70;4.15;;;2.80;99.90;;;;;;4948303;28;20110;-67
2023/04/14 05:08:32;;;;;;;8.52;4.63;;;2.90;99.90;;;;;;4954911;29;20040;-63
2023/04/14 05:10:58;;;;;;;8.60;5.00;;;2.90;99.90;;;;;;4945677;28;20046;-64
2023/04/14 05:13:24;;;;;;;10.85;4.72;;;3.00;99.90;;;;;;4947152;29;20031;-64
2023/04/14 05:15:50;;;;;;;7.28;4.45;;;2.90;99.90;;;;;;4939454;29;20050;-65
2023/04/14 05:18:16;;;;;;;10.40;4.07;;;2.90;99.90;;;;;;4934896;29;20058;-67
2023/04/14 05:20:42;;;;;;;6.75;4.15;;;2.90;99.90;;;;;;4946607;28;20044;-64
2023/04/14 05:23:07;;;;;;;11.10;4.47;;;2.90;99.90;;;;;;4959273;28;20382;-64
2023/04/14 05:25:33;;;;;;;6.55;4.20;;;2.90;99.90;;;;;;4935481;28;20129;-65
2023/04/14 05:27:58;;;;;;;12.52;5.97;;;2.90;99.90;;;;;;4943449;28;20067;-64
2023/04/14 05:30:25;;;;;;;8.55;4.10;;;3.00;99.90;;;;;;4955871;28;20031;-63
2023/04/14 05:32:50;;;;;;;6.00;3.67;;;3.00;99.90;;;;;;4956021;29;20047;-65
2023/04/14 05:35:19;;;;;;;8.07;4.40;;;3.00;99.90;;;;;;4932140;29;20087;-64
2023/04/14 05:37:44;;;;;;;12.40;5.63;;;3.10;99.90;;;;;;4921947;28;20043;-65
2023/04/14 05:40:10;;;;;;;7.65;4.07;;;3.10;99.90;;;;;;4938368;29;20094;-65
2023/04/14 05:42:36;;;;;;;8.50;4.97;;;3.20;99.90;;;;;;4952416;29;20129;-64
2023/04/14 05:45:02;;;;;;;9.57;5.85;;;3.30;99.90;;;;;;4937904;28;20126;-64
2023/04/14 05:47:28;;;;;;;9.45;5.55;;;3.30;99.90;;;;;;4940554;28;20039;-64
2023/04/14 05:49:54;;;;;;;11.13;4.68;;;3.40;99.90;;;;;;4940711;28;20130;-64
2023/04/14 05:52:20;;;;;;;7.75;4.30;;;3.30;99.90;;;;;;4947487;28;20062;-64
2023/04/14 05:54:45;;;;;;;14.98;6.10;;;3.30;99.90;;;;;;4931887;28;20101;-64
2023/04/14 05:57:11;;;;;;;9.70;5.40;;;3.40;99.90;;;;;;4952610;28;20506;-63
2023/04/14 05:59:36;;;;;;;9.30;4.70;;;3.40;99.90;;;;;;4930264;29;20407;-64
2023/04/14 06:02:05;;;;;;;8.63;4.40;;;3.40;99.90;;;;;;4944941;28;20494;-64
2023/04/14 06:04:32;;;;;;;7.07;3.90;;;3.40;99.90;;;;;;4932874;29;20041;-64
2023/04/14 06:06:57;;;;;;;8.80;4.18;;;3.40;99.90;;;;;;4955131;28;20036;-64
2023/04/14 06:09:23;;;;;;;6.82;3.60;;;3.40;99.90;;;;;;4942810;28;20039;-65
2023/04/14 06:11:48;;;;;;;5.30;3.30;;;3.30;99.90;;;;;;4953772;28;20046;-68
2023/04/14 06:14:14;;;;;;;6.68;3.80;;;3.30;99.90;;;;;;4946510;28;20231;-64
2023/04/14 06:16:40;;;;;;;8.93;4.25;;;3.40;99.90;;;;;;4954571;29;20063;-65
2023/04/14 06:19:05;;;;;;;8.23;4.40;;;3.50;99.90;;;;;;4934810;28;20035;-64
2023/04/14 06:21:31;;;;;;;8.57;4.22;;;3.50;99.90;;;;;;4950265;28;20071;-65
2023/04/14 06:23:56;;;;;;;10.60;4.78;;;3.60;99.90;;;;;;4947553;28;20521;-65
2023/04/14 06:26:24;;;;;;;9.90;5.00;;;3.80;99.90;;;;;;4955196;29;20044;-65
2023/04/14 06:28:50;;;;;;;8.70;5.75;;;3.90;99.90;;;;;;4944998;28;20051;-64
2023/04/14 06:31:16;;;;;;;10.88;6.60;;;4.10;99.90;;;;;;4953098;28;20046;-64
2023/04/14 06:33:41;;;;;;;13.43;7.18;;;4.20;99.90;;;;;;4955208;28;20043;-64
2023/04/14 06:36:07;;;;;;;14.45;8.25;;;4.50;99.90;;;;;;4947825;28;20067;-65
2023/04/14 06:38:33;;;;;;;17.35;8.15;;;4.60;99.90;;;;;;4941691;28;20449;-65
2023/04/14 06:40:58;;;;;;;11.45;7.22;;;4.70;99.90;;;;;;4945133;28;20545;-66
2023/04/14 06:43:24;;;;;;;12.20;7.78;;;4.90;99.90;;;;;;4935627;29;20413;-66
2023/04/14 06:45:49;;;;;;;14.57;7.00;;;5.00;99.90;;;;;;4938511;28;20126;-65
2023/04/14 06:48:15;;;;;;;13.02;6.90;;;5.20;99.90;;;;;;4956798;28;20090;-66
2023/04/14 06:50:40;;;;;;;12.73;6.90;;;5.30;99.90;;;;;;4937876;29;20031;-65
2023/04/14 06:53:08;;;;;;;17.95;7.13;;;5.50;99.90;;;;;;4949149;28;20482;-66
2023/04/14 06:55:35;;;;;;;18.80;7.07;;;5.60;99.90;;;;;;4945837;29;20051;-65
2023/04/14 06:58:00;;;;;;;14.70;7.43;;;5.70;99.90;;;;;;4954301;28;20543;-65
2023/04/14 07:00:26;;;;;;;15.60;8.05;;;5.80;99.90;;;;;;4949224;28;20039;-64
2023/04/14 07:02:51;;;;;;;13.93;7.57;;;5.90;99.90;;;;;;4954142;28;20039;-64
2023/04/14 07:05:17;;;;;;;14.93;7.20;;;6.00;99.90;;;;;;4947583;28;20043;-65
2023/04/14 07:07:43;;;;;;;14.25;8.20;;;6.10;99.90;;;;;;4937088;29;20047;-64
2023/04/14 07:10:08;;;;;;;15.57;7.18;;;6.20;99.90;;;;;;4943638;28;20023;-64
2023/04/14 07:12:35;;;;;;;15.45;7.72;;;6.30;99.90;;;;;;4949213;29;20506;-64
2023/04/14 07:15:00;;;;;;;15.02;7.03;;;6.40;99.90;;;;;;4954358;28;20078;-64
2023/04/14 07:17:26;;;;;;;11.43;7.30;;;6.50;99.90;;;;;;4954128;29;20074;-64
2023/04/14 07:19:51;;;;;;;14.43;7.50;;;6.60;99.90;;;;;;4919562;28;20355;-65
2023/04/14 07:22:17;;;;;;;20.90;7.65;;;6.70;99.90;;;;;;4953812;28;20039;-65
2023/04/14 07:24:43;;;;;;;14.52;7.30;;;6.80;99.90;;;;;;4938048;29;20039;-64
2023/04/14 07:27:13;;;;;;;17.10;7.63;;;6.80;99.90;;;;;;4932845;28;20050;-64
2023/04/14 07:29:40;;;;;;;13.65;7.80;;;7.00;99.90;;;;;;4947865;28;20109;-64
2023/04/14 07:32:06;;;;;;;14.23;7.55;;;7.10;99.90;;;;;;4933745;28;20418;-65
2023/04/14 07:34:32;;;;;;;17.33;8.07;;;7.10;99.90;;;;;;4933117;28;20352;-65
2023/04/14 07:36:57;;;;;;;19.08;10.45;;;7.20;99.90;;;;;;4949913;28;20046;-64
2023/04/14 07:39:23;;;;;;;21.35;9.35;;;7.30;99.90;;;;;;4951958;28;20458;-64
2023/04/14 07:41:48;;;;;;;45.00;10.40;;;7.40;99.90;;;;;;4924282;28;20044;-64
2023/04/14 07:44:14;;;;;;;25.50;9.35;;;7.60;99.90;;;;;;4935975;28;20046;-64
2023/04/14 07:46:40;;;;;;;18.88;8.40;;;7.70;99.90;;;;;;4942242;28;20182;-66
2023/04/14 07:49:05;;;;;;;14.90;6.05;;;7.90;99.90;;;;;;4952719;28;20067;-64
2023/04/14 07:51:31;;;;;;;10.82;5.13;;;8.00;99.90;;;;;;4932983;28;20054;-63
2023/04/14 07:53:58;;;;;;;9.50;4.35;;;8.20;99.90;;;;;;4941964;28;20079;-64
2023/04/14 07:56:24;;;;;;;14.65;4.38;;;8.30;99.90;;;;;;4922565;29;20047;-64
2023/04/14 07:58:50;;;;;;;13.13;4.55;;;8.40;99.90;;;;;;4926567;28;20050;-63
2023/04/14 08:01:16;;;;;;;14.98;4.30;;;8.50;99.90;;;;;;4942263;28;20043;-65
2023/04/14 08:03:41;;;;;;;9.80;4.50;;;8.60;99.90;;;;;;4924426;29;20058;-64
2023/04/14 08:06:07;;;;;;;11.48;4.30;;;8.80;99.90;;;;;;4943082;28;20035;-64
2023/04/14 08:08:34;;;;;;;16.30;3.72;;;8.90;99.90;;;;;;4935319;29;20379;-64
2023/04/14 08:10:59;;;;;;;11.85;4.57;;;9.00;99.90;;;;;;4953459;29;20035;-64
2023/04/14 08:13:25;;;;;;;10.73;3.70;;;9.10;99.90;;;;;;4948403;28;20042;-64
2023/04/14 08:15:50;;;;;;;15.38;4.55;;;9.30;99.90;;;;;;4940928;28;20218;-64
2023/04/14 08:18:16;;;;;;;11.98;4.38;;;9.40;99.90;;;;;;4938457;28;20066;-64
2023/04/14 08:20:42;;;;;;;14.30;3.72;;;9.50;99.90;;;;;;4950974;28;20434;-64
2023/04/14 08:23:07;;;;;;;10.38;3.50;;;9.50;99.90;;;;;;4934388;29;20039;-64
2023/04/14 08:25:33;;;;;;;9.07;2.75;;;9.50;99.90;;;;;;4938044;28;20040;-65
2023/04/14 08:27:59;;;;;;;10.40;3.00;;;9.60;99.90;;;;;;4943612;28;20501;-64
2023/04/14 08:30:25;;;;;;;8.82;3.35;;;9.70;99.90;;;;;;4951861;28;20482;-64
2023/04/14 08:32:50;;;;;;;9.75;3.10;;;9.80;99.90;;;;;;4947789;28;20050;-64
2023/04/14 08:35:17;;;;;;;10.00;2.85;;;9.80;99.90;;;;;;4951355;28;20082;-64
2023/04/14 08:37:42;;;;;;;11.45;3.30;;;9.80;99.90;;;;;;4935314;29;20074;-64
2023/04/14 08:40:09;;;;;;;17.38;3.60;;;9.90;99.90;;;;;;4952415;29;20039;-64
2023/04/14 08:42:35;;;;;;;6.10;3.20;;;9.80;99.90;;;;;;4925837;29;20091;-64
2023/04/14 08:45:01;;;;;;;8.18;2.83;;;10.00;99.90;;;;;;4951712;28;20509;-64
2023/04/14 08:47:30;;;;;;;11.30;3.53;;;10.00;99.90;;;;;;4952977;29;20042;-64
2023/04/14 08:50:03;;;;;;;7.20;3.00;;;10.10;99.90;;;;;;4937924;28;20043;-64
2023/04/14 08:52:30;;;;;;;9.90;3.60;;;10.20;99.90;;;;;;4937266;28;20039;-64
2023/04/14 08:54:57;;;;;;;9.35;3.28;;;10.20;99.90;;;;;;4950515;28;20119;-64
2023/04/14 08:57:25;;;;;;;9.40;3.35;;;10.30;99.90;;;;;;4934327;29;20039;-64
2023/04/14 08:59:51;;;;;;;12.35;2.97;;;10.30;99.90;;;;;;4946239;28;20035;-64
2023/04/14 09:02:20;;;;;;;11.77;3.22;;;10.40;99.90;;;;;;4947561;28;20430;-63
2023/04/14 09:04:46;;;;;;;12.60;3.22;;;10.50;99.90;;;;;;4950956;28;20047;-64
2023/04/14 09:07:13;;;;;;;8.65;3.20;;;10.60;99.90;;;;;;4934723;28;20104;-64
2023/04/14 09:09:38;;;;;;;8.15;3.20;;;10.70;99.90;;;;;;4948347;28;20039;-64
2023/04/14 09:12:04;;;;;;;9.73;3.17;;;10.90;99.90;;;;;;4935355;29;20048;-64
2023/04/14 09:14:30;;;;;;;13.40;3.45;;;10.90;99.90;;;;;;4945932;29;20028;-64
2023/04/14 09:16:56;;;;;;;13.63;3.50;;;11.00;99.90;;;;;;4921712;28;20110;-64
2023/04/14 09:19:23;;;;;;;8.10;3.20;;;11.10;99.90;;;;;;4952130;28;20494;-64
2023/04/14 09:21:49;;;;;;;15.32;3.58;;;11.20;99.90;;;;;;4912780;28;20490;-65
2023/04/14 09:24:22;;;;;;;8.30;3.30;;;11.20;99.90;;;;;;4921507;28;20045;-64
2023/04/14 09:26:49;;;;;;;7.80;3.35;;;11.30;99.90;;;;;;4941023;28;20468;-64
2023/04/14 09:29:14;;;;;;;11.40;3.30;;;11.40;99.90;;;;;;4947019;28;20038;-64
2023/04/14 09:31:40;;;;;;;13.35;3.42;;;11.40;99.90;;;;;;4954034;28;20043;-64
2023/04/14 09:34:16;;;;;;;10.07;3.42;;;11.50;99.90;;;;;;4954565;29;20050;-64
2023/04/14 09:36:58;;;;;;;8.45;2.90;;;11.60;99.90;;;;;;4940588;28;20042;-64
2023/04/14 09:39:23;;;;;;;12.10;3.60;;;11.70;99.90;;;;;;4922743;29;20039;-64
2023/04/14 09:41:49;;;;;;;10.45;3.38;;;11.70;99.90;;;;;;4941855;28;20500;-64
2023/04/14 09:44:15;;;;;;;12.27;3.30;;;11.80;99.90;;;;;;4953728;28;20046;-64
2023/04/14 09:47:06;;;;;;;9.40;3.20;;;11.80;99.90;;;;;;4922598;29;20036;-64
2023/04/14 09:49:32;;;;;;;12.95;3.40;;;12.00;99.90;;;;;;4941183;28;20067;-64
2023/04/14 09:52:08;;;;;;;11.10;3.25;;;12.00;99.90;;;;;;4934276;28;20035;-64
2023/04/14 09:54:34;;;;;;;11.55;3.38;;;12.10;99.90;;;;;;4928834;29;20035;-65
2023/04/14 09:57:01;;;;;;;7.80;3.42;;;12.20;99.90;;;;;;4939095;28;20051;-66
2023/04/14 09:59:37;;;;;;;9.68;3.67;;;12.20;99.90;;;;;;4938979;28;20063;-66
2023/04/14 10:02:08;;;;;;;10.32;3.55;;;12.30;99.90;;;;;;4951445;28;20047;-65
2023/04/14 10:04:34;;;;;;;14.20;4.05;;;12.40;99.90;;;;;;4953648;28;20043;-65
2023/04/14 10:07:00;;;;;;;9.57;3.25;;;12.50;99.90;;;;;;4953629;29;20125;-65
2023/04/14 10:09:27;;;;;;;11.43;3.22;;;12.60;99.90;;;;;;4932466;29;20231;-65
2023/04/14 10:12:11;;;;;;;7.55;3.47;;;12.60;99.90;;;;;;4955577;28;20039;-65
2023/04/14 10:14:38;;;;;;;9.23;3.35;;;12.60;99.90;;;;;;4926541;28;20495;-64
2023/04/14 10:17:04;;;;;;;12.48;3.90;;;12.70;99.90;;;;;;4942735;28;20417;-65
2023/04/14 10:19:30;;;;;;;10.95;3.40;;;12.80;99.90;;;;;;4938141;29;20086;-65
2023/04/14 10:21:56;;;;;;;12.15;3.47;;;12.80;99.90;;;;;;4941641;28;20458;-65
2023/04/14 10:24:23;;;;;;;14.38;3.58;;;12.90;99.90;;;;;;4937008;28;20039;-65
2023/04/14 10:26:50;;;;;;;11.57;3.30;;;12.90;99.90;;;;;;4939508;28;20043;-65
2023/04/14 10:29:16;;;;;;;9.07;3.80;;;13.00;99.90;;;;;;4934317;29;20039;-65
2023/04/14 10:31:48;;;;;;;10.23;3.70;;;13.10;99.90;;;;;;4952489;29;20041;-65
2023/04/14 10:34:17;;;;;;;11.38;3.97;;;13.40;99.90;;;;;;4932044;29;20448;-65
2023/04/14 10:36:43;;;;;;;8.35;3.50;;;13.50;99.90;;;;;;4952197;28;20436;-65
2023/04/14 10:39:10;;;;;;;14.27;3.40;;;13.70;99.90;;;;;;4952718;29;20039;-65
2023/04/14 10:41:46;;;;;;;8.00;2.90;;;13.70;99.90;;;;;;4950784;29;20074;-64
2023/04/14 10:44:30;;;;;;;10.52;4.00;;;13.80;99.90;;;;;;4950114;28;20031;-65
2023/04/14 10:46:57;;;;;;;13.48;3.97;;;14.00;99.90;;;;;;4954129;28;20525;-67
2023/04/14 10:49:37;;;;;;;10.82;3.08;;;14.10;99.90;;;;;;4949913;28;20505;-65
2023/04/14 10:52:24;;;;;;;8.30;3.15;;;14.10;99.90;;;;;;4921542;28;20040;-65
2023/04/14 10:55:01;;;;;;;4.75;2.63;;;14.40;99.90;;;;;;4929922;28;20058;-65
2023/04/14 10:57:28;;;;;;;7.95;2.88;;;14.40;99.90;;;;;;4951933;28;20050;-65
2023/04/14 10:59:58;;;;;;;14.15;3.75;;;14.40;99.90;;;;;;4951591;29;20561;-65
2023/04/14 11:02:31;;;;;;;7.47;2.67;;;14.70;99.90;;;;;;4943450;28;20090;-65
2023/04/14 11:05:13;;;;;;;7.18;2.90;;;14.50;99.90;;;;;;4934603;28;20501;-64
2023/04/14 11:07:47;;;;;;;9.50;3.40;;;14.20;99.90;;;;;;4949962;28;20548;-65
2023/04/14 11:10:19;;;;;;;9.05;3.03;;;14.20;99.90;;;;;;4928881;29;20039;-65
2023/04/14 11:12:46;;;;;;;9.60;3.22;;;14.30;99.90;;;;;;4951656;28;20398;-66
2023/04/14 11:15:13;;;;;;;11.23;2.97;;;14.30;99.90;;;;;;4942688;28;20035;-66
2023/04/14 11:17:39;;;;;;;9.48;2.92;;;14.50;99.90;;;;;;4934523;29;20051;-66
2023/04/14 11:20:16;;;;;;;5.85;2.85;;;14.80;99.90;;;;;;4946328;28;20076;-66
2023/04/14 11:22:47;;;;;;;11.48;3.42;;;14.90;97.30;;;;;;4923757;29;20051;-66
2023/04/14 11:25:15;;;;;;;6.45;3.17;;;14.90;99.40;;;;;;4940007;28;20114;-65
2023/04/14 11:27:41;;;;;;;9.52;3.33;;;15.10;99.90;;;;;;4946046;28;20189;-66
2023/04/14 11:30:26;;;;;;;10.95;3.38;;;15.30;99.90;;;;;;4931036;28;20058;-66
2023/04/14 11:32:53;;;;;;;6.90;3.20;;;15.40;97.50;;;;;;4952750;28;20114;-66
2023/04/14 11:35:24;;;;;;;8.25;3.40;;;15.30;99.60;;;;;;4952625;28;20035;-66
2023/04/14 11:37:54;;;;;;;6.45;3.05;;;15.10;96.70;;;;;;4953514;29;20043;-65
2023/04/14 11:40:20;;;;;;;12.03;3.53;;;15.00;99.50;;;;;;4939483;28;20067;-65
2023/04/14 11:42:51;;;;;;;7.88;3.30;;;15.10;99.90;;;;;;4940514;28;20308;-66
2023/04/14 11:45:17;;;;;;;11.70;4.03;;;15.20;99.70;;;;;;4938172;28;20039;-65
2023/04/14 11:48:03;;;;;;;10.23;3.63;;;15.40;99.90;;;;;;4950746;28;20105;-65
2023/04/14 11:50:30;;;;;;;7.22;3.25;;;15.70;99.50;;;;;;4934457;29;20414;-65
2023/04/14 11:52:59;;;;;;;9.75;3.10;;;15.90;99.60;;;;;;4933659;28;20047;-65
2023/04/14 11:55:26;;;;;;;11.13;3.72;;;16.00;99.50;;;;;;4929052;29;20113;-65
2023/04/14 11:57:52;;;;;;;7.93;3.40;;;15.60;99.60;;;;;;4948591;28;20071;-65
2023/04/14 12:00:18;;;;;;;8.32;3.53;;;15.50;99.90;;;;;;4935433;29;20486;-66
2023/04/14 12:02:44;;;;;;;8.80;3.22;;;15.30;99.90;;;;;;4953748;29;20049;-66
2023/04/14 12:05:12;;;;;;;10.27;3.28;;;15.40;99.90;;;;;;4941621;28;20043;-65
2023/04/14 12:07:40;;;;;;;9.85;3.30;;;15.20;99.90;;;;;;4938965;28;20051;-65
2023/04/14 12:10:06;;;;;;;10.50;3.45;;;15.10;99.90;;;;;;4952015;28;20042;-65
2023/04/14 12:12:32;;;;;;;6.00;3.03;;;15.40;99.90;;;;;;4934192;28;20039;-64
2023/04/14 12:14:58;;;;;;;10.88;3.72;;;15.70;99.90;;;;;;4939902;28;20808;-64
2023/04/14 12:17:24;;;;;;;10.73;3.47;;;16.00;99.40;;;;;;4946551;28;20690;-66
2023/04/14 12:19:49;;;;;;;8.65;3.67;;;16.40;99.70;;;;;;4953249;28;20046;-66
2023/04/14 12:22:26;;;;;;;9.90;3.42;;;16.60;99.40;;;;;;4952792;28;20142;-66
2023/04/14 12:24:51;;;;;;;8.57;3.10;;;16.70;95.30;;;;;;4958011;28;20043;-66
2023/04/14 12:27:19;;;;;;;9.23;3.03;;;16.50;95.40;;;;;;4933033;29;20512;-66
2023/04/14 12:29:46;;;;;;;9.13;3.60;;;16.40;97.20;;;;;;4917821;28;20050;-66
2023/04/14 12:32:12;;;;;;;7.70;3.60;;;16.50;98.10;;;;;;4947243;28;20102;-65
2023/04/14 12:34:38;;;;;;;11.05;4.07;;;16.80;97.40;;;;;;4948791;28;20039;-66
2023/04/14 12:37:10;;;;;;;8.73;3.40;;;17.00;96.60;;;;;;4944622;28;20505;-66
2023/04/14 12:40:05;;;;;;;9.05;3.25;;;17.20;95.50;;;;;;4934971;29;20061;-66
2023/04/14 12:42:48;;;;;;;8.15;2.92;;;17.40;94.60;;;;;;4928512;29;20512;-66
2023/04/14 12:45:15;;;;;;;6.95;3.38;;;17.70;94.20;;;;;;4934264;28;20402;-66
2023/04/14 12:47:51;;;;;;;8.93;3.28;;;17.90;96.00;;;;;;4942357;28;20039;-65
2023/04/14 12:50:27;;;;;;;7.97;3.65;;;17.50;96.60;;;;;;4936666;28;20039;-65
2023/04/14 12:52:53;;;;;;;11.23;3.50;;;17.10;93.50;;;;;;4938764;28;20047;-65
2023/04/14 12:55:27;;;;;;;11.52;3.53;;;17.00;97.00;;;;;;4925473;29;20035;-65
2023/04/14 12:57:57;;;;;;;11.00;3.67;;;17.10;96.80;;;;;;4949071;28;20552;-66
2023/04/14 13:00:27;;;;;;;12.20;3.53;;;17.00;95.90;;;;;;4921752;29;20044;-65
2023/04/14 13:02:55;;;;;;;9.13;3.30;;;17.00;96.50;;;;;;4952774;28;20081;-65
2023/04/14 13:05:21;;;;;;;7.18;3.10;;;16.60;96.40;;;;;;4952251;28;21881;-65
2023/04/14 13:07:46;;;;;;;11.02;3.45;;;16.50;96.90;;;;;;4949695;28;20047;-65
2023/04/14 13:10:12;;;;;;;8.07;3.13;;;16.90;97.40;;;;;;4946694;28;20050;-66
2023/04/14 13:12:38;;;;;;;6.53;3.03;;;17.20;95.00;;;;;;4946514;28;20042;-65
2023/04/14 13:15:05;;;;;;;11.85;3.10;;;17.20;94.40;;;;;;4937400;29;20402;-66
2023/04/14 13:17:30;;;;;;;9.00;2.85;;;17.50;95.10;;;;;;4944828;29;20054;-65
2023/04/14 13:19:56;;;;;;;15.10;3.28;;;17.60;94.10;;;;;;4935153;28;20047;-65
2023/04/14 13:22:22;;;;;;;12.55;3.40;;;17.70;94.00;;;;;;4951305;28;20046;-66
2023/04/14 13:24:48;;;;;;;5.65;2.72;;;17.50;93.30;;;;;;4917294;28;20048;-66
2023/04/14 13:27:15;;;;;;;8.60;3.42;;;17.20;86.10;;;;;;4944225;28;20040;-66
2023/04/14 13:29:41;;;;;;;8.02;3.15;;;17.00;91.60;;;;;;4958362;28;20175;-65
2023/04/14 13:32:10;;;;;;;7.60;3.00;;;17.20;92.80;;;;;;4951316;28;20512;-65
2023/04/14 13:34:37;;;;;;;10.43;3.60;;;17.60;91.50;;;;;;4949194;28;20054;-65
2023/04/14 13:37:03;;;;;;;6.72;3.10;;;17.60;93.20;;;;;;4938125;28;20041;-65
2023/04/14 13:39:29;;;;;;;7.88;3.63;;;17.80;91.60;;;;;;4938039;28;20036;-65
2023/04/14 13:41:54;;;;;;;7.88;3.22;;;17.90;91.80;;;;;;4947421;28;20039;-67
2023/04/14 13:44:20;;;;;;;7.72;3.47;;;18.00;90.90;;;;;;4924321;29;20048;-65
2023/04/14 13:46:47;;;;;;;8.90;3.60;;;18.10;88.20;;;;;;4919877;29;20043;-65
2023/04/14 13:49:13;;;;;;;7.18;3.00;;;18.10;91.60;;;;;;4934863;28;20039;-65
2023/04/14 13:51:38;;;;;;;9.88;3.30;;;18.00;91.60;;;;;;4936581;28;20402;-65
2023/04/14 13:54:05;;;;;;;9.60;3.55;;;18.00;90.80;;;;;;4945172;28;20086;-65
2023/04/14 13:56:31;;;;;;;10.70;3.35;;;18.20;91.10;;;;;;4937262;28;20506;-65
2023/04/14 13:58:56;;;;;;;5.93;2.92;;;18.30;90.70;;;;;;4944576;28;20062;-66
2023/04/14 14:01:22;;;;;;;10.60;3.83;;;18.30;89.60;;;;;;4950178;28;20073;-66